sensor_id;sensor_type;location;lat;lon;timestamp;pressure;altitude;pressure_sealevel;temperature;humidity
41044;BME280;51680;49.806;18.774;2022-09-20T00:01:03;97277.22;;;13.05;83.66
41044;BME280;51680;49.806;18.774;2022-09-20T00:04:05;97276.41;;;13.05;83.78
41044;BME280;51680;49.806;18.774;2022-09-20T00:07:07;97278.88;;;13.06;83.79
41044;BME280;51680;49.806;18.774;2022-09-20T00:10:09;97278.66;;;13.09;83.71
41044;BME280;51680;49.806;18.774;2022-09-20T00:13:14;97274.00;;;13.13;83.92
41044;BME280;51680;49.806;18.774;2022-09-20T00:16:19;97281.53;;;13.17;83.54
41044;BME280;51680;49.806;18.774;2022-09-20T00:19:21;97284.06;;;13.19;83.46
41044;BME280;51680;49.806;18.774;2022-09-20T00:22:22;97271.53;;;13.22;83.32
41044;BME280;51680;49.806;18.774;2022-09-20T00:25:24;97278.56;;;13.22;83.20
41044;BME280;51680;49.806;18.774;2022-09-20T00:28:28;97285.47;;;13.23;83.24
41044;BME280;51680;49.806;18.774;2022-09-20T00:31:30;97275.22;;;13.20;83.26
41044;BME280;51680;49.806;18.774;2022-09-20T00:34:32;97276.88;;;13.21;83.14
41044;BME280;51680;49.806;18.774;2022-09-20T00:37:51;97271.53;;;13.22;83.10
41044;BME280;51680;49.806;18.774;2022-09-20T00:40:53;97282.03;;;13.22;83.14
41044;BME280;51680;49.806;18.774;2022-09-20T00:43:57;97274.75;;;13.26;83.28
41044;BME280;51680;49.806;18.774;2022-09-20T00:47:00;97281.78;;;13.25;82.91
41044;BME280;51680;49.806;18.774;2022-09-20T00:50:11;97278.22;;;13.26;82.84
41044;BME280;51680;49.806;18.774;2022-09-20T00:53:17;97285.34;;;13.24;82.99
41044;BME280;51680;49.806;18.774;2022-09-20T00:56:23;97288.22;;;13.21;82.94
41044;BME280;51680;49.806;18.774;2022-09-20T00:59:30;97277.97;;;13.18;83.15
41044;BME280;51680;49.806;18.774;2022-09-20T01:02:35;97279.13;;;13.14;83.23
41044;BME280;51680;49.806;18.774;2022-09-20T01:05:38;97286.28;;;13.12;83.24
41044;BME280;51680;49.806;18.774;2022-09-20T01:08:44;97286.28;;;13.12;82.98
41044;BME280;51680;49.806;18.774;2022-09-20T01:11:49;97283.69;;;13.12;83.22
41044;BME280;51680;49.806;18.774;2022-09-20T01:14:54;97284.50;;;13.13;83.01
41044;BME280;51680;49.806;18.774;2022-09-20T01:17:57;97274.00;;;13.13;83.19
41044;BME280;51680;49.806;18.774;2022-09-20T01:21:02;97277.38;;;13.15;83.06
41044;BME280;51680;49.806;18.774;2022-09-20T01:24:10;97279.13;;;13.14;82.64
41044;BME280;51680;49.806;18.774;2022-09-20T01:27:21;97282.13;;;13.10;82.94
41044;BME280;51680;49.806;18.774;2022-09-20T01:30:30;97285.56;;;13.10;82.65
41044;BME280;51680;49.806;18.774;2022-09-20T01:33:40;97283.69;;;13.12;83.07
41044;BME280;51680;49.806;18.774;2022-09-20T01:36:49;97288.91;;;13.12;82.98
41044;BME280;51680;49.806;18.774;2022-09-20T01:40:01;97283.69;;;13.12;83.06
41044;BME280;51680;49.806;18.774;2022-09-20T01:43:07;97281.75;;;13.14;82.94
41044;BME280;51680;49.806;18.774;2022-09-20T01:46:23;97280.94;;;13.14;82.61
41044;BME280;51680;49.806;18.774;2022-09-20T01:49:35;97287.38;;;13.10;82.82
41044;BME280;51680;49.806;18.774;2022-09-20T01:53:14;97286.63;;;13.08;82.78
41044;BME280;51680;49.806;18.774;2022-09-20T02:00:04;97293.03;;;13.04;83.11
41044;BME280;51680;49.806;18.774;2022-09-20T02:03:35;97285.81;;;13.07;82.99
41044;BME280;51680;49.806;18.774;2022-09-20T02:06:53;97284.13;;;13.06;82.86
41044;BME280;51680;49.806;18.774;2022-09-20T02:10:20;97284.13;;;13.06;82.95
41044;BME280;51680;49.806;18.774;2022-09-20T02:13:28;97291.88;;;13.08;83.01
41044;BME280;51680;49.806;18.774;2022-09-20T02:16:45;97286.03;;;13.04;82.63
41044;BME280;51680;49.806;18.774;2022-09-20T02:20:10;97286.97;;;13.03;82.63
41044;BME280;51680;49.806;18.774;2022-09-20T02:23:32;97286.25;;;13.01;82.86
41044;BME280;51680;49.806;18.774;2022-09-20T02:26:40;97285.44;;;13.01;83.12
41044;BME280;51680;49.806;18.774;2022-09-20T02:30:11;97293.41;;;12.99;83.45
41044;BME280;51680;49.806;18.774;2022-09-20T02:33:32;97285.53;;;12.99;82.91
41044;BME280;51680;49.806;18.774;2022-09-20T02:36:42;97290.88;;;12.98;82.83
41044;BME280;51680;49.806;18.774;2022-09-20T02:39:55;97290.88;;;12.98;83.00
41044;BME280;51680;49.806;18.774;2022-09-20T02:43:06;97290.06;;;12.97;82.82
41044;BME280;51680;49.806;18.774;2022-09-20T02:46:16;97287.47;;;12.97;82.69
41044;BME280;51680;49.806;18.774;2022-09-20T02:49:27;97296.72;;;13.01;83.03
41044;BME280;51680;49.806;18.774;2022-09-20T02:52:39;97299.13;;;13.04;82.75
41044;BME280;51680;49.806;18.774;2022-09-20T02:55:49;97304.38;;;13.04;82.92
41044;BME280;51680;49.806;18.774;2022-09-20T02:59:03;97299.84;;;13.06;82.93
41044;BME280;51680;49.806;18.774;2022-09-20T03:02:17;97307.59;;;13.08;82.56
41044;BME280;51680;49.806;18.774;2022-09-20T03:05:23;97309.25;;;13.09;82.63
41044;BME280;51680;49.806;18.774;2022-09-20T03:08:33;97309.63;;;13.04;82.52
41044;BME280;51680;49.806;18.774;2022-09-20T03:11:46;97319.25;;;13.04;82.77
41044;BME280;51680;49.806;18.774;2022-09-20T03:14:58;97308.78;;;13.04;82.85
41044;BME280;51680;49.806;18.774;2022-09-20T03:18:09;97312.44;;;13.01;82.76
41044;BME280;51680;49.806;18.774;2022-09-20T03:21:22;97315.06;;;13.01;82.65
41044;BME280;51680;49.806;18.774;2022-09-20T03:24:40;97313.31;;;13.02;82.68
41044;BME280;51680;49.806;18.774;2022-09-20T03:27:50;97320.09;;;13.04;82.59
41044;BME280;51680;49.806;18.774;2022-09-20T03:31:02;97315.56;;;13.06;82.65
41044;BME280;51680;49.806;18.774;2022-09-20T03:34:19;97323.31;;;13.08;82.30
41044;BME280;51680;49.806;18.774;2022-09-20T03:37:40;97317.25;;;13.07;82.55
41044;BME280;51680;49.806;18.774;2022-09-20T03:44:46;97315.34;;;13.09;82.29
41044;BME280;51680;49.806;18.774;2022-09-20T03:51:27;97324.00;;;12.99;82.77
41044;BME280;51680;49.806;18.774;2022-09-20T03:54:47;97325.56;;;13.01;82.27
41044;BME280;51680;49.806;18.774;2022-09-20T03:58:12;97315.06;;;13.01;82.20
41044;BME280;51680;49.806;18.774;2022-09-20T04:01:35;97322.72;;;13.04;82.23
41044;BME280;51680;49.806;18.774;2022-09-20T04:04:43;97324.38;;;13.05;82.78
41044;BME280;51680;49.806;18.774;2022-09-20T04:07:54;97325.22;;;13.06;82.24
41044;BME280;51680;49.806;18.774;2022-09-20T04:11:07;97330.47;;;13.06;82.65
41044;BME280;51680;49.806;18.774;2022-09-20T04:14:16;97320.00;;;13.06;82.69
41044;BME280;51680;49.806;18.774;2022-09-20T04:17:28;97329.41;;;13.08;82.49
41044;BME280;51680;49.806;18.774;2022-09-20T04:20:38;97324.06;;;13.10;82.25
41044;BME280;51680;49.806;18.774;2022-09-20T04:23:48;97324.75;;;13.12;82.46
41044;BME280;51680;49.806;18.774;2022-09-20T04:26:55;97320.38;;;13.12;82.38
41044;BME280;51680;49.806;18.774;2022-09-20T04:30:04;97332.53;;;13.13;82.23
41044;BME280;51680;49.806;18.774;2022-09-20T04:33:13;97334.19;;;13.14;82.27
41044;BME280;51680;49.806;18.774;2022-09-20T04:36:27;97343.72;;;13.15;82.27
41044;BME280;51680;49.806;18.774;2022-09-20T04:39:42;97341.22;;;13.14;82.11
41044;BME280;51680;49.806;18.774;2022-09-20T04:46:44;97343.38;;;13.20;82.43
41044;BME280;51680;49.806;18.774;2022-09-20T04:54:00;97342.06;;;13.25;81.90
41044;BME280;51680;49.806;18.774;2022-09-20T04:57:31;97344.69;;;13.25;82.00
41044;BME280;51680;49.806;18.774;2022-09-20T05:00:47;97343.75;;;13.26;82.14
41044;BME280;51680;49.806;18.774;2022-09-20T05:08:00;97350.66;;;13.27;82.00
41044;BME280;51680;49.806;18.774;2022-09-20T05:18:49;97352.56;;;13.25;82.13
41044;BME280;51680;49.806;18.774;2022-09-20T05:22:22;97360.41;;;13.25;81.96
41044;BME280;51680;49.806;18.774;2022-09-20T05:25:41;97365.44;;;13.28;82.07
41044;BME280;51680;49.806;18.774;2022-09-20T05:28:54;97364.47;;;13.29;82.01
41044;BME280;51680;49.806;18.774;2022-09-20T05:32:00;97371.38;;;13.30;82.02
41044;BME280;51680;49.806;18.774;2022-09-20T05:35:13;97371.16;;;13.33;81.97
41044;BME280;51680;49.806;18.774;2022-09-20T05:38:24;97373.78;;;13.33;82.06
41044;BME280;51680;49.806;18.774;2022-09-20T05:41:36;97367.59;;;13.34;81.96
41044;BME280;51680;49.806;18.774;2022-09-20T05:44:54;97378.94;;;13.35;81.74
41044;BME280;51680;49.806;18.774;2022-09-20T05:48:01;97383.31;;;13.34;82.12
41044;BME280;51680;49.806;18.774;2022-09-20T05:51:14;97381.44;;;13.36;82.10
41044;BME280;51680;49.806;18.774;2022-09-20T05:54:32;97385.94;;;13.34;81.84
41044;BME280;51680;49.806;18.774;2022-09-20T05:57:49;97388.56;;;13.34;81.96
41044;BME280;51680;49.806;18.774;2022-09-20T06:00:58;97389.63;;;13.32;82.21
41044;BME280;51680;49.806;18.774;2022-09-20T06:04:11;97384.19;;;13.35;82.41
41044;BME280;51680;49.806;18.774;2022-09-20T06:07:23;97383.09;;;13.37;82.58
41044;BME280;51680;49.806;18.774;2022-09-20T06:10:42;97391.56;;;13.41;82.22
41044;BME280;51680;49.806;18.774;2022-09-20T06:13:55;97394.56;;;13.47;82.17
41044;BME280;51680;49.806;18.774;2022-09-20T06:17:06;97391.25;;;13.45;82.18
41044;BME280;51680;49.806;18.774;2022-09-20T06:20:17;97396.22;;;13.37;82.47
41044;BME280;51680;49.806;18.774;2022-09-20T06:23:21;97397.19;;;13.36;82.32
41044;BME280;51680;49.806;18.774;2022-09-20T06:26:27;97406.59;;;13.39;82.50
41044;BME280;51680;49.806;18.774;2022-09-20T06:29:32;97398.94;;;13.36;82.48
41044;BME280;51680;49.806;18.774;2022-09-20T06:32:51;97402.06;;;13.41;82.58
41044;BME280;51680;49.806;18.774;2022-09-20T06:35:55;97402.56;;;13.46;82.69
41044;BME280;51680;49.806;18.774;2022-09-20T06:39:27;97411.75;;;13.51;82.28
41044;BME280;51680;49.806;18.774;2022-09-20T06:42:53;97400.09;;;13.55;82.36
41044;BME280;51680;49.806;18.774;2022-09-20T06:45:59;97415.34;;;13.61;82.19
41044;BME280;51680;49.806;18.774;2022-09-20T06:49:02;97411.44;;;13.67;82.20
41044;BME280;51680;49.806;18.774;2022-09-20T06:52:04;97407.59;;;13.71;82.07
41044;BME280;51680;49.806;18.774;2022-09-20T06:55:12;97415.16;;;13.75;81.72
41044;BME280;51680;49.806;18.774;2022-09-20T06:58:20;97418.25;;;13.80;81.92
41044;BME280;51680;49.806;18.774;2022-09-20T07:01:22;97417.19;;;13.83;81.89
41044;BME280;51680;49.806;18.774;2022-09-20T07:04:23;97422.06;;;13.87;81.97
41044;BME280;51680;49.806;18.774;2022-09-20T07:07:25;97417.06;;;13.84;81.86
41044;BME280;51680;49.806;18.774;2022-09-20T07:10:28;97425.91;;;13.83;81.87
41044;BME280;51680;49.806;18.774;2022-09-20T07:13:31;97425.38;;;13.78;81.78
41044;BME280;51680;49.806;18.774;2022-09-20T07:16:33;97424.19;;;13.71;81.94
41044;BME280;51680;49.806;18.774;2022-09-20T07:19:36;97429.81;;;13.67;81.89
41044;BME280;51680;49.806;18.774;2022-09-20T07:22:37;97436.59;;;13.69;81.97
41044;BME280;51680;49.806;18.774;2022-09-20T07:25:39;97443.53;;;13.70;82.14
41044;BME280;51680;49.806;18.774;2022-09-20T07:28:43;97446.63;;;13.75;82.30
41044;BME280;51680;49.806;18.774;2022-09-20T07:31:44;97456.66;;;13.81;82.14
41044;BME280;51680;49.806;18.774;2022-09-20T07:34:46;97454.03;;;13.92;82.01
41044;BME280;51680;49.806;18.774;2022-09-20T07:37:55;97456.22;;;13.98;81.49
41044;BME280;51680;49.806;18.774;2022-09-20T07:40:58;97456.22;;;13.98;81.40
41044;BME280;51680;49.806;18.774;2022-09-20T07:44:02;97464.09;;;13.98;81.37
41044;BME280;51680;49.806;18.774;2022-09-20T07:47:17;97461.59;;;13.97;81.26
41044;BME280;51680;49.806;18.774;2022-09-20T07:50:20;97464.09;;;13.98;81.72
41044;BME280;51680;49.806;18.774;2022-09-20T07:53:22;97463.84;;;14.01;81.41
41044;BME280;51680;49.806;18.774;2022-09-20T07:56:24;97467.69;;;14.08;81.43
41044;BME280;51680;49.806;18.774;2022-09-20T07:59:27;97471.06;;;14.21;81.18
41044;BME280;51680;49.806;18.774;2022-09-20T08:02:29;97474.66;;;14.31;81.04
41044;BME280;51680;49.806;18.774;2022-09-20T08:05:31;97481.09;;;14.38;80.80
41044;BME280;51680;49.806;18.774;2022-09-20T08:08:33;97476.56;;;14.40;80.48
41044;BME280;51680;49.806;18.774;2022-09-20T08:11:35;97474.88;;;14.39;79.94
41044;BME280;51680;49.806;18.774;2022-09-20T08:14:40;97482.16;;;14.36;80.01
41044;BME280;51680;49.806;18.774;2022-09-20T08:17:45;97472.75;;;14.33;79.74
41044;BME280;51680;49.806;18.774;2022-09-20T08:20:47;97479.78;;;14.33;79.57
41044;BME280;51680;49.806;18.774;2022-09-20T08:23:49;97484.91;;;14.34;79.29
41044;BME280;51680;49.806;18.774;2022-09-20T08:26:51;97482.16;;;14.36;79.16
41044;BME280;51680;49.806;18.774;2022-09-20T08:29:54;97476.56;;;14.40;79.20
41044;BME280;51680;49.806;18.774;2022-09-20T08:32:56;97487.53;;;14.34;79.62
41044;BME280;51680;49.806;18.774;2022-09-20T08:35:59;97485.66;;;14.47;79.26
41044;BME280;51680;49.806;18.774;2022-09-20T08:39:00;97481.59;;;14.65;79.40
41044;BME280;51680;49.806;18.774;2022-09-20T08:42:09;97481.38;;;15.00;79.33
41044;BME280;51680;49.806;18.774;2022-09-20T08:45:18;97473.69;;;15.61;78.13
41044;BME280;51680;49.806;18.774;2022-09-20T08:48:21;97478.91;;;16.13;76.14
41044;BME280;51680;49.806;18.774;2022-09-20T08:51:29;97478.16;;;16.52;75.06
41044;BME280;51680;49.806;18.774;2022-09-20T08:54:33;97474.63;;;16.72;74.09
41044;BME280;51680;49.806;18.774;2022-09-20T08:57:35;97480.34;;;16.77;73.27
41044;BME280;51680;49.806;18.774;2022-09-20T09:00:39;97481.41;;;17.14;72.28
41044;BME280;51680;49.806;18.774;2022-09-20T09:03:43;97466.88;;;18.52;69.81
41044;BME280;51680;49.806;18.774;2022-09-20T09:06:45;97464.41;;;19.04;66.82
41044;BME280;51680;49.806;18.774;2022-09-20T09:09:50;97459.78;;;19.06;66.28
41044;BME280;51680;49.806;18.774;2022-09-20T09:12:53;97470.63;;;19.13;65.80
41044;BME280;51680;49.806;18.774;2022-09-20T09:15:59;97469.16;;;19.28;65.64
41044;BME280;51680;49.806;18.774;2022-09-20T09:19:26;97461.22;;;19.28;64.20
41044;BME280;51680;49.806;18.774;2022-09-20T09:22:30;97469.41;;;19.07;65.51
41044;BME280;51680;49.806;18.774;2022-09-20T09:25:39;97457.06;;;18.71;66.21
41044;BME280;51680;49.806;18.774;2022-09-20T09:28:41;97466.59;;;18.55;66.87
41044;BME280;51680;49.806;18.774;2022-09-20T09:31:46;97459.25;;;18.49;66.87
41044;BME280;51680;49.806;18.774;2022-09-20T09:34:49;97448.16;;;18.36;66.72
41044;BME280;51680;49.806;18.774;2022-09-20T09:37:55;97464.34;;;18.60;65.76
41044;BME280;51680;49.806;18.774;2022-09-20T09:40:59;97454.06;;;18.57;66.57
41044;BME280;51680;49.806;18.774;2022-09-20T09:44:02;97459.28;;;18.39;66.97
41044;BME280;51680;49.806;18.774;2022-09-20T09:47:22;97455.97;;;18.18;66.45
41044;BME280;51680;49.806;18.774;2022-09-20T09:50:28;97456.44;;;18.04;67.62
41044;BME280;51680;49.806;18.774;2022-09-20T09:53:30;97455.41;;;18.34;66.54
41044;BME280;51680;49.806;18.774;2022-09-20T09:56:47;97450.13;;;19.42;64.58
41044;BME280;51680;49.806;18.774;2022-09-20T10:00:03;97436.31;;;20.08;61.08
41044;BME280;51680;49.806;18.774;2022-09-20T10:03:18;97434.63;;;20.33;59.68
41044;BME280;51680;49.806;18.774;2022-09-20T10:06:27;97434.97;;;20.30;59.93
41044;BME280;51680;49.806;18.774;2022-09-20T10:09:41;97432.88;;;20.16;58.62
41044;BME280;51680;49.806;18.774;2022-09-20T10:12:57;97432.69;;;19.92;60.26
41044;BME280;51680;49.806;18.774;2022-09-20T10:16:07;97439.75;;;19.66;60.55
41044;BME280;51680;49.806;18.774;2022-09-20T10:19:18;97445.53;;;19.44;61.05
41044;BME280;51680;49.806;18.774;2022-09-20T10:22:31;97440.22;;;19.44;60.60
41044;BME280;51680;49.806;18.774;2022-09-20T10:25:40;97438.13;;;19.20;61.44
41044;BME280;51680;49.806;18.774;2022-09-20T10:28:56;97439.44;;;18.89;61.99
41044;BME280;51680;49.806;18.774;2022-09-20T10:32:09;97438.03;;;18.68;62.88
41044;BME280;51680;49.806;18.774;2022-09-20T10:35:25;97435.53;;;18.57;63.95
41044;BME280;51680;49.806;18.774;2022-09-20T10:38:33;97430.66;;;18.62;62.58
41044;BME280;51680;49.806;18.774;2022-09-20T10:41:43;97428.81;;;18.72;62.82
41044;BME280;51680;49.806;18.774;2022-09-20T10:45:12;97432.34;;;18.63;62.81
41044;BME280;51680;49.806;18.774;2022-09-20T10:48:21;97432.13;;;18.47;63.04
41044;BME280;51680;49.806;18.774;2022-09-20T10:51:36;97437.50;;;18.08;62.29
41044;BME280;51680;49.806;18.774;2022-09-20T10:54:52;97458.84;;;17.50;62.55
41044;BME280;51680;49.806;18.774;2022-09-20T10:58:14;97471.31;;;16.80;63.53
41044;BME280;51680;49.806;18.774;2022-09-20T11:01:29;97479.59;;;16.15;66.20
41044;BME280;51680;49.806;18.774;2022-09-20T11:04:50;97489.19;;;15.75;68.35
41044;BME280;51680;49.806;18.774;2022-09-20T11:08:04;97494.09;;;15.48;69.28
41044;BME280;51680;49.806;18.774;2022-09-20T11:11:10;97488.13;;;15.35;70.27
41044;BME280;51680;49.806;18.774;2022-09-20T11:14:17;97491.34;;;15.28;70.64
41044;BME280;51680;49.806;18.774;2022-09-20T11:17:25;97496.03;;;15.24;71.14
41044;BME280;51680;49.806;18.774;2022-09-20T11:20:32;97495.13;;;15.14;71.50
41044;BME280;51680;49.806;18.774;2022-09-20T11:23:44;97501.81;;;15.07;71.76
41044;BME280;51680;49.806;18.774;2022-09-20T11:26:50;97492.25;;;15.06;71.93
41044;BME280;51680;49.806;18.774;2022-09-20T11:29:58;97499.53;;;15.14;72.43
41044;BME280;51680;49.806;18.774;2022-09-20T11:33:06;97492.94;;;15.19;71.58
41044;BME280;51680;49.806;18.774;2022-09-20T11:36:16;97487.75;;;15.29;71.63
41044;BME280;51680;49.806;18.774;2022-09-20T11:39:26;97489.56;;;15.39;72.09
41044;BME280;51680;49.806;18.774;2022-09-20T11:42:33;97494.31;;;15.45;72.23
41044;BME280;51680;49.806;18.774;2022-09-20T11:45:37;97491.44;;;15.48;72.22
41044;BME280;51680;49.806;18.774;2022-09-20T11:48:44;97491.66;;;15.56;71.90
41044;BME280;51680;49.806;18.774;2022-09-20T11:52:19;97496.75;;;15.69;72.61
41044;BME280;51680;49.806;18.774;2022-09-20T11:55:36;97491.31;;;15.81;71.86
41044;BME280;51680;49.806;18.774;2022-09-20T11:58:46;97498.03;;;15.95;72.10
41044;BME280;51680;49.806;18.774;2022-09-20T12:01:53;97492.72;;;16.06;71.12
41044;BME280;51680;49.806;18.774;2022-09-20T12:04:56;97495.97;;;16.19;71.58
41044;BME280;51680;49.806;18.774;2022-09-20T12:08:02;97495.66;;;16.12;72.03
41044;BME280;51680;49.806;18.774;2022-09-20T12:11:07;97496.31;;;16.05;72.00
41044;BME280;51680;49.806;18.774;2022-09-20T12:14:17;97501.44;;;15.65;74.33
41044;BME280;51680;49.806;18.774;2022-09-20T12:21:04;97502.88;;;15.05;75.51
41044;BME280;51680;49.806;18.774;2022-09-20T12:24:20;97503.78;;;14.72;76.27
41044;BME280;51680;49.806;18.774;2022-09-20T12:27:57;97500.66;;;14.45;80.33
41044;BME280;51680;49.806;18.774;2022-09-20T12:34:35;97501.22;;;14.05;79.27
41044;BME280;51680;49.806;18.774;2022-09-20T12:37:37;97503.88;;;13.81;79.84
41044;BME280;51680;49.806;18.774;2022-09-20T12:40:57;97500.94;;;13.51;81.20
41044;BME280;51680;49.806;18.774;2022-09-20T12:44:05;97494.00;;;13.50;81.22
41044;BME280;51680;49.806;18.774;2022-09-20T12:47:22;97494.13;;;13.49;81.27
41044;BME280;51680;49.806;18.774;2022-09-20T12:50:25;97506.25;;;13.39;82.02
41044;BME280;51680;49.806;18.774;2022-09-20T12:53:58;97507.19;;;13.72;83.93
41044;BME280;51680;49.806;18.774;2022-09-20T12:57:15;97493.78;;;13.99;82.83
41044;BME280;51680;49.806;18.774;2022-09-20T13:00:29;97489.09;;;14.26;81.62
41044;BME280;51680;49.806;18.774;2022-09-20T13:03:37;97494.16;;;14.16;80.89
41044;BME280;51680;49.806;18.774;2022-09-20T13:06:39;97507.50;;;14.02;82.02
41044;BME280;51680;49.806;18.774;2022-09-20T13:09:41;97510.66;;;13.73;82.39
41044;BME280;51680;49.806;18.774;2022-09-20T13:12:44;97516.09;;;13.35;84.11
41044;BME280;51680;49.806;18.774;2022-09-20T13:15:50;97516.91;;;12.76;85.60
41044;BME280;51680;49.806;18.774;2022-09-20T13:18:58;97514.75;;;12.20;87.43
41044;BME280;51680;49.806;18.774;2022-09-20T13:22:04;97504.19;;;11.84;90.03
41044;BME280;51680;49.806;18.774;2022-09-20T13:25:12;97523.56;;;11.94;89.02
41044;BME280;51680;49.806;18.774;2022-09-20T13:28:31;97525.53;;;12.28;89.26
41044;BME280;51680;49.806;18.774;2022-09-20T13:31:35;97523.97;;;12.38;88.25
41044;BME280;51680;49.806;18.774;2022-09-20T13:34:36;97524.38;;;12.57;87.11
41044;BME280;51680;49.806;18.774;2022-09-20T13:37:44;97521.19;;;12.77;85.94
41044;BME280;51680;49.806;18.774;2022-09-20T13:40:48;97527.16;;;12.79;85.51
41044;BME280;51680;49.806;18.774;2022-09-20T13:43:51;97538.09;;;12.61;86.06
41044;BME280;51680;49.806;18.774;2022-09-20T13:46:54;97531.81;;;12.51;87.13
41044;BME280;51680;49.806;18.774;2022-09-20T13:50:00;97537.56;;;12.43;87.51
41044;BME280;51680;49.806;18.774;2022-09-20T13:53:13;97535.06;;;12.54;88.06
41044;BME280;51680;49.806;18.774;2022-09-20T13:56:19;97534.53;;;12.74;87.21
41044;BME280;51680;49.806;18.774;2022-09-20T13:59:22;97526.94;;;12.82;87.43
41044;BME280;51680;49.806;18.774;2022-09-20T14:02:29;97525.47;;;12.91;87.79
41044;BME280;51680;49.806;18.774;2022-09-20T14:05:31;97530.59;;;13.05;87.59
41044;BME280;51680;49.806;18.774;2022-09-20T14:08:36;97528.50;;;13.33;86.84
41044;BME280;51680;49.806;18.774;2022-09-20T14:11:41;97527.66;;;13.56;86.34
41044;BME280;51680;49.806;18.774;2022-09-20T14:14:43;97529.25;;;13.70;85.36
41044;BME280;51680;49.806;18.774;2022-09-20T14:17:48;97522.44;;;13.67;83.77
41044;BME280;51680;49.806;18.774;2022-09-20T14:20:51;97535.47;;;13.80;83.25
41044;BME280;51680;49.806;18.774;2022-09-20T14:23:57;97534.91;;;13.87;82.89
41044;BME280;51680;49.806;18.774;2022-09-20T14:27:13;97527.31;;;13.95;82.50
41044;BME280;51680;49.806;18.774;2022-09-20T14:30:28;97527.31;;;13.95;81.60
41044;BME280;51680;49.806;18.774;2022-09-20T14:33:32;97524.25;;;14.12;81.33
41044;BME280;51680;49.806;18.774;2022-09-20T14:36:34;97523.56;;;14.21;81.46
41044;BME280;51680;49.806;18.774;2022-09-20T14:39:45;97520.50;;;14.38;81.35
41044;BME280;51680;49.806;18.774;2022-09-20T14:42:54;97515.72;;;14.43;81.61
41044;BME280;51680;49.806;18.774;2022-09-20T14:45:58;97524.56;;;14.53;81.87
41044;BME280;51680;49.806;18.774;2022-09-20T14:49:20;97523.63;;;14.65;80.86
41044;BME280;51680;49.806;18.774;2022-09-20T14:52:35;97519.78;;;14.47;80.32
41044;BME280;51680;49.806;18.774;2022-09-20T14:55:38;97523.59;;;14.32;81.36
41044;BME280;51680;49.806;18.774;2022-09-20T14:59:04;97523.56;;;14.21;81.19
41044;BME280;51680;49.806;18.774;2022-09-20T15:02:12;97536.06;;;14.07;81.95
41044;BME280;51680;49.806;18.774;2022-09-20T15:05:21;97539.47;;;13.96;82.46
41044;BME280;51680;49.806;18.774;2022-09-20T15:08:26;97539.56;;;13.84;82.94
41044;BME280;51680;49.806;18.774;2022-09-20T15:11:27;97539.28;;;13.76;83.38
41044;BME280;51680;49.806;18.774;2022-09-20T15:14:30;97538.47;;;13.75;83.38
41044;BME280;51680;49.806;18.774;2022-09-20T15:17:31;97528.91;;;13.74;83.66
41044;BME280;51680;49.806;18.774;2022-09-20T15:20:34;97534.16;;;13.74;83.65
41044;BME280;51680;49.806;18.774;2022-09-20T15:23:36;97542.25;;;13.71;83.87
41044;BME280;51680;49.806;18.774;2022-09-20T15:26:38;97538.66;;;13.61;83.82
41044;BME280;51680;49.806;18.774;2022-09-20T15:29:40;97539.50;;;13.62;83.61
41044;BME280;51680;49.806;18.774;2022-09-20T15:32:42;97536.72;;;13.63;83.39
41044;BME280;51680;49.806;18.774;2022-09-20T15:35:46;97541.75;;;13.66;83.38
41044;BME280;51680;49.806;18.774;2022-09-20T15:38:52;97548.66;;;13.67;83.18
41044;BME280;51680;49.806;18.774;2022-09-20T15:41:54;97555.38;;;13.71;83.26
41044;BME280;51680;49.806;18.774;2022-09-20T15:44:56;97564.13;;;13.83;83.03
41044;BME280;51680;49.806;18.774;2022-09-20T15:47:57;97567.34;;;13.86;83.14
41044;BME280;51680;49.806;18.774;2022-09-20T15:51:03;97568.81;;;13.90;82.89
41044;BME280;51680;49.806;18.774;2022-09-20T15:54:06;97575.41;;;13.96;82.96
41044;BME280;51680;49.806;18.774;2022-09-20T15:57:08;97566.31;;;14.00;83.02
41044;BME280;51680;49.806;18.774;2022-09-20T16:00:11;97567.84;;;13.91;82.84
41044;BME280;51680;49.806;18.774;2022-09-20T16:03:13;97561.66;;;13.92;83.01
41044;BME280;51680;49.806;18.774;2022-09-20T16:06:16;97569.31;;;13.95;82.83
41044;BME280;51680;49.806;18.774;2022-09-20T16:09:18;97570.44;;;13.80;82.26
41044;BME280;51680;49.806;18.774;2022-09-20T16:12:22;97564.44;;;13.78;82.81
41044;BME280;51680;49.806;18.774;2022-09-20T16:15:24;97570.63;;;13.66;82.59
41044;BME280;51680;49.806;18.774;2022-09-20T16:18:26;97571.63;;;13.53;83.08
41044;BME280;51680;49.806;18.774;2022-09-20T16:21:48;97579.66;;;13.39;83.10
41044;BME280;51680;49.806;18.774;2022-09-20T16:24:53;97589.66;;;13.34;83.23
41044;BME280;51680;49.806;18.774;2022-09-20T16:27:55;97585.56;;;13.30;83.33
41044;BME280;51680;49.806;18.774;2022-09-20T16:30:58;97585.88;;;13.25;83.29
41044;BME280;51680;49.806;18.774;2022-09-20T16:34:00;97586.81;;;13.24;83.07
41044;BME280;51680;49.806;18.774;2022-09-20T16:37:08;97585.59;;;13.17;83.55
41044;BME280;51680;49.806;18.774;2022-09-20T16:40:11;97591.06;;;13.14;83.51
41044;BME280;51680;49.806;18.774;2022-09-20T16:43:13;97596.19;;;13.16;83.57
41044;BME280;51680;49.806;18.774;2022-09-20T16:46:25;97593.78;;;13.13;83.81
41044;BME280;51680;49.806;18.774;2022-09-20T16:49:27;97607.94;;;13.10;83.58
41044;BME280;51680;49.806;18.774;2022-09-20T16:52:30;97609.50;;;13.13;83.53
41044;BME280;51680;49.806;18.774;2022-09-20T16:55:32;97619.16;;;13.12;83.81
41044;BME280;51680;49.806;18.774;2022-09-20T16:58:34;97613.94;;;13.12;83.68
41044;BME280;51680;49.806;18.774;2022-09-20T17:01:36;97619.47;;;13.08;83.83
41044;BME280;51680;49.806;18.774;2022-09-20T17:04:38;97620.53;;;13.05;83.96